ADDS METAR Data INFO
IDs: Format: Raw Decoded Include TAF

Data at: 1012 UTC 14 Dec 2017

KVNY 140951Z 00000KT 10SM CLR 09/M04 A2996 RMK AO2 SLP138 T00941039
KVNY 140851Z 00000KT 10SM CLR 10/M03 A2996 RMK AO2 SLP139 T01001028 56004
KVNY 140751Z 00000KT 10SM CLR 10/M03 A2996 RMK AO2 SLP140 T01001033 402940100
KVNY 140651Z 00000KT 10SM CLR 12/M03 A2996 RMK AO2 SLP139 T01171033
KVNY 140551Z 00000KT 10SM CLR 13/M05 A2997 RMK AO2 SLP144 T01281050 10256 20128 53009
KVNY 140451Z 35003KT 10SM CLR 14/M06 A2996 RMK AO2 SLP140 T01441061
KVNY 140351Z 35003KT 10SM CLR 16/M08 A2995 RMK AO2 SLP138 T01561078
KVNY 140251Z 00000KT 10SM CLR 18/M10 A2995 RMK AO2 SLP136 T01831100 50008
KVNY 140151Z 00000KT 10SM CLR 21/M13 A2995 RMK AO2 SLP137 T02061128
KVNY 140051Z 10003KT 10SM CLR 22/M14 A2993 RMK AO2 SLP130 T02221144
KVNY 132351Z 10007KT 10SM CLR 26/M14 A2992 RMK AO2 SLP126 T02561144 10294 20217 55007
KVNY 132251Z 13008KT 10SM CLR 28/M14 A2992 RMK AO2 SLP122 T02781144
KVNY 132151Z 17005KT 10SM CLR 29/M17 A2993 RMK AO2 SLP127 T02891172
KVNY 132051Z 17006KT 10SM CLR 28/M19 A2994 RMK AO2 SLP132 T02831189 58032
KVNY 131951Z 10003KT 10SM CLR 28/M21 A2998 RMK AO2 SLP144 T02781211
KVNY 131851Z VRB04KT 10SM CLR 27/M20 A3001 RMK AO2 SLP154 T02671200
KVNY 131751Z 00000KT 10SM CLR 22/M12 A3004 RMK AO2 SLP164 T02221122 10222 20106 51007
KVNY 131651Z 13003KT 10SM CLR 20/M13 A3004 RMK AO2 SLP165 T02001128
KVNY 131551Z 00000KT 10SM CLR 14/M11 A3003 RMK AO2 SLP162 T01391111
KVNY 131451Z 00000KT 10SM CLR 12/M12 A3002 RMK AO2 SLP160 T01221122 53002
KVNY 131351Z VRB03KT 10SM CLR 12/M12 A3001 RMK AO2 SLP158 T01171122
KVNY 131251Z AUTO 00000KT 10SM CLR 12/M14 A3001 RMK AO2 SLP157 T01221139
KVNY 131151Z AUTO 00000KT 10SM CLR 12/M14 A3001 RMK AO2 SLP157 T01221144 10200 20106 58007
KVNY 131051Z AUTO 01009KT 10SM CLR 19/M24 A3002 RMK AO2 SLP158 T01891244
KVNY 130951Z AUTO 21003KT 10SM CLR 12/M16 A3003 RMK AO2 SLP162 T01221156
KVNY 130851Z AUTO 26004KT 10SM CLR 15/M18 A3003 RMK AO2 SLP163 T01501183 58006
KVNY 130751Z AUTO 00000KT 10SM CLR 18/M23 A3005 RMK AO2 SLP167 T01781233 402830094
KVNY 130651Z AUTO 35011KT 10SM CLR 19/M26 A3005 RMK AO2 SLP168 T01941261
KVNY 130551Z 02003KT 10SM CLR 20/M24 A3005 RMK AO2 SLP169 T02001244 10256 20194 55002
KVNY 130451Z 03004KT 10SM CLR 21/M26 A3005 RMK AO2 SLP169 T02061256
KVNY 130351Z 02009KT 10SM CLR 21/M26 A3005 RMK AO2 SLP171 T02061261
KVNY 130251Z 01009KT 10SM CLR 21/M26 A3006 RMK AO2 SLP174 T02061261 51008
KVNY 130151Z 01009KT 10SM CLR 22/M27 A3005 RMK AO2 SLP172 T02171267
KVNY 130051Z 36012KT 10SM CLR 23/M28 A3004 RMK AO2 SLP166 T02331278
KVNY 122351Z 36017G21KT 10SM CLR 26/M30 A3003 RMK AO2 SLP162 T02561300 10283 20228 56016
KVNY 122251Z 36015KT 10SM CLR 27/M32 A3004 RMK AO2 SLP163 T02671317